sensor_id;sensor_type;location;lat;lon;timestamp;temperature;humidity
76967;DHT22;65904;52.278;20.972;2023-02-15T00:01:15;3.90;99.90
76967;DHT22;65904;52.278;20.972;2023-02-15T00:04:01;3.90;99.90
76967;DHT22;65904;52.278;20.972;2023-02-15T00:06:48;3.90;99.90
76967;DHT22;65904;52.278;20.972;2023-02-15T00:09:34;3.90;99.90
76967;DHT22;65904;52.278;20.972;2023-02-15T00:12:20;3.90;99.90
76967;DHT22;65904;52.278;20.972;2023-02-15T00:15:07;3.90;99.90
76967;DHT22;65904;52.278;20.972;2023-02-15T00:17:56;3.90;99.90
76967;DHT22;65904;52.278;20.972;2023-02-15T00:20:43;3.90;99.90
76967;DHT22;65904;52.278;20.972;2023-02-15T00:23:29;3.90;99.90
76967;DHT22;65904;52.278;20.972;2023-02-15T00:26:15;3.90;99.90
76967;DHT22;65904;52.278;20.972;2023-02-15T00:29:03;3.90;99.90
76967;DHT22;65904;52.278;20.972;2023-02-15T00:31:49;3.90;99.90
76967;DHT22;65904;52.278;20.972;2023-02-15T00:34:37;3.90;99.90
76967;DHT22;65904;52.278;20.972;2023-02-15T00:37:23;3.90;99.90
76967;DHT22;65904;52.278;20.972;2023-02-15T00:40:10;3.80;99.90
76967;DHT22;65904;52.278;20.972;2023-02-15T00:42:56;3.90;99.90
76967;DHT22;65904;52.278;20.972;2023-02-15T00:45:44;3.80;99.90
76967;DHT22;65904;52.278;20.972;2023-02-15T00:48:30;3.90;99.90
76967;DHT22;65904;52.278;20.972;2023-02-15T00:51:18;3.90;99.90
76967;DHT22;65904;52.278;20.972;2023-02-15T00:54:05;3.80;99.90
76967;DHT22;65904;52.278;20.972;2023-02-15T00:56:52;3.80;99.90
76967;DHT22;65904;52.278;20.972;2023-02-15T00:59:38;3.90;99.90
76967;DHT22;65904;52.278;20.972;2023-02-15T01:02:24;3.90;99.90
76967;DHT22;65904;52.278;20.972;2023-02-15T01:05:10;3.90;99.90
76967;DHT22;65904;52.278;20.972;2023-02-15T01:07:58;3.90;99.90
76967;DHT22;65904;52.278;20.972;2023-02-15T01:10:45;3.90;99.90
76967;DHT22;65904;52.278;20.972;2023-02-15T01:13:32;3.90;99.90
76967;DHT22;65904;52.278;20.972;2023-02-15T01:16:18;3.90;99.90
76967;DHT22;65904;52.278;20.972;2023-02-15T01:19:05;3.90;99.90
76967;DHT22;65904;52.278;20.972;2023-02-15T01:21:51;3.90;99.90
76967;DHT22;65904;52.278;20.972;2023-02-15T01:24:38;3.90;99.90
76967;DHT22;65904;52.278;20.972;2023-02-15T01:27:24;3.90;99.90
76967;DHT22;65904;52.278;20.972;2023-02-15T01:30:12;3.90;99.90
76967;DHT22;65904;52.278;20.972;2023-02-15T01:32:58;3.90;99.90
76967;DHT22;65904;52.278;20.972;2023-02-15T01:35:45;3.90;99.90
76967;DHT22;65904;52.278;20.972;2023-02-15T01:38:32;3.90;99.90
76967;DHT22;65904;52.278;20.972;2023-02-15T01:41:20;3.90;99.90
76967;DHT22;65904;52.278;20.972;2023-02-15T01:47:32;3.90;99.90
76967;DHT22;65904;52.278;20.972;2023-02-15T01:50:25;3.90;99.90
76967;DHT22;65904;52.278;20.972;2023-02-15T01:53:16;3.90;99.90
76967;DHT22;65904;52.278;20.972;2023-02-15T01:56:06;4.00;99.90
76967;DHT22;65904;52.278;20.972;2023-02-15T01:59:00;3.90;99.90
76967;DHT22;65904;52.278;20.972;2023-02-15T02:01:48;3.90;99.90
76967;DHT22;65904;52.278;20.972;2023-02-15T02:04:38;4.00;99.90
76967;DHT22;65904;52.278;20.972;2023-02-15T02:07:27;3.90;99.90
76967;DHT22;65904;52.278;20.972;2023-02-15T02:10:17;3.90;99.90
76967;DHT22;65904;52.278;20.972;2023-02-15T02:13:05;3.90;99.90
76967;DHT22;65904;52.278;20.972;2023-02-15T02:15:59;3.90;99.90
76967;DHT22;65904;52.278;20.972;2023-02-15T02:18:57;3.90;99.90
76967;DHT22;65904;52.278;20.972;2023-02-15T02:25:45;3.90;99.90
76967;DHT22;65904;52.278;20.972;2023-02-15T02:28:51;3.90;99.90
76967;DHT22;65904;52.278;20.972;2023-02-15T02:32:01;3.90;99.90
76967;DHT22;65904;52.278;20.972;2023-02-15T02:34:55;3.90;99.90
76967;DHT22;65904;52.278;20.972;2023-02-15T02:37:48;3.90;99.90
76967;DHT22;65904;52.278;20.972;2023-02-15T02:40:46;4.00;99.90
76967;DHT22;65904;52.278;20.972;2023-02-15T02:43:40;4.00;99.90
76967;DHT22;65904;52.278;20.972;2023-02-15T02:46:30;3.90;99.90
76967;DHT22;65904;52.278;20.972;2023-02-15T02:49:29;3.90;99.90
76967;DHT22;65904;52.278;20.972;2023-02-15T02:52:40;4.00;99.90
76967;DHT22;65904;52.278;20.972;2023-02-15T02:55:30;3.90;99.90
76967;DHT22;65904;52.278;20.972;2023-02-15T02:58:21;4.00;99.90
76967;DHT22;65904;52.278;20.972;2023-02-15T03:01:14;4.00;99.90
76967;DHT22;65904;52.278;20.972;2023-02-15T03:04:05;3.90;99.90
76967;DHT22;65904;52.278;20.972;2023-02-15T03:06:55;3.90;99.90
76967;DHT22;65904;52.278;20.972;2023-02-15T03:09:48;3.90;99.90
76967;DHT22;65904;52.278;20.972;2023-02-15T03:12:37;3.90;99.90
76967;DHT22;65904;52.278;20.972;2023-02-15T03:15:29;3.90;99.90
76967;DHT22;65904;52.278;20.972;2023-02-15T03:18:40;4.00;99.90
76967;DHT22;65904;52.278;20.972;2023-02-15T03:21:34;3.90;99.90
76967;DHT22;65904;52.278;20.972;2023-02-15T03:24:28;3.90;99.90
76967;DHT22;65904;52.278;20.972;2023-02-15T03:27:19;4.00;99.90
76967;DHT22;65904;52.278;20.972;2023-02-15T03:30:07;3.90;99.90
76967;DHT22;65904;52.278;20.972;2023-02-15T03:32:57;4.00;99.90
76967;DHT22;65904;52.278;20.972;2023-02-15T03:35:45;4.00;99.90
76967;DHT22;65904;52.278;20.972;2023-02-15T03:38:37;4.00;99.90
76967;DHT22;65904;52.278;20.972;2023-02-15T03:41:34;4.00;99.90
76967;DHT22;65904;52.278;20.972;2023-02-15T03:44:28;3.90;99.90
76967;DHT22;65904;52.278;20.972;2023-02-15T03:47:17;4.00;99.90
76967;DHT22;65904;52.278;20.972;2023-02-15T03:50:07;3.90;99.90
76967;DHT22;65904;52.278;20.972;2023-02-15T03:53:17;4.00;99.90
76967;DHT22;65904;52.278;20.972;2023-02-15T03:56:05;3.90;99.90
76967;DHT22;65904;52.278;20.972;2023-02-15T03:58:51;3.90;99.90
76967;DHT22;65904;52.278;20.972;2023-02-15T04:02:02;3.90;99.90
76967;DHT22;65904;52.278;20.972;2023-02-15T04:04:53;3.90;99.90
76967;DHT22;65904;52.278;20.972;2023-02-15T04:07:39;3.90;99.90
76967;DHT22;65904;52.278;20.972;2023-02-15T04:10:25;3.90;99.90
76967;DHT22;65904;52.278;20.972;2023-02-15T04:13:31;3.90;99.90
76967;DHT22;65904;52.278;20.972;2023-02-15T04:16:17;3.90;99.90
76967;DHT22;65904;52.278;20.972;2023-02-15T04:19:04;3.90;99.90
76967;DHT22;65904;52.278;20.972;2023-02-15T04:22:07;3.90;99.90
76967;DHT22;65904;52.278;20.972;2023-02-15T04:25:11;3.90;99.90
76967;DHT22;65904;52.278;20.972;2023-02-15T04:27:57;4.00;99.90
76967;DHT22;65904;52.278;20.972;2023-02-15T04:30:44;3.90;99.90
76967;DHT22;65904;52.278;20.972;2023-02-15T04:33:30;3.90;99.90
76967;DHT22;65904;52.278;20.972;2023-02-15T04:36:17;3.90;99.90
76967;DHT22;65904;52.278;20.972;2023-02-15T04:39:04;3.90;99.90
76967;DHT22;65904;52.278;20.972;2023-02-15T04:41:50;3.90;99.90
76967;DHT22;65904;52.278;20.972;2023-02-15T04:44:36;3.90;99.90
76967;DHT22;65904;52.278;20.972;2023-02-15T04:47:23;3.90;99.90
76967;DHT22;65904;52.278;20.972;2023-02-15T04:50:10;3.90;99.90
76967;DHT22;65904;52.278;20.972;2023-02-15T04:52:58;3.90;99.90
76967;DHT22;65904;52.278;20.972;2023-02-15T04:55:44;3.80;99.90
76967;DHT22;65904;52.278;20.972;2023-02-15T04:58:30;3.80;99.90
76967;DHT22;65904;52.278;20.972;2023-02-15T05:01:17;3.80;99.90
76967;DHT22;65904;52.278;20.972;2023-02-15T05:04:04;3.80;99.90
76967;DHT22;65904;52.278;20.972;2023-02-15T05:06:50;3.70;99.90
76967;DHT22;65904;52.278;20.972;2023-02-15T05:09:38;3.80;99.90
76967;DHT22;65904;52.278;20.972;2023-02-15T05:12:24;3.80;99.90
76967;DHT22;65904;52.278;20.972;2023-02-15T05:15:10;3.80;99.90
76967;DHT22;65904;52.278;20.972;2023-02-15T05:17:56;3.70;99.90
76967;DHT22;65904;52.278;20.972;2023-02-15T05:20:43;3.80;99.90
76967;DHT22;65904;52.278;20.972;2023-02-15T05:23:29;3.80;99.90
76967;DHT22;65904;52.278;20.972;2023-02-15T05:26:19;3.80;99.90
76967;DHT22;65904;52.278;20.972;2023-02-15T05:29:23;3.80;99.90
76967;DHT22;65904;52.278;20.972;2023-02-15T05:32:10;3.70;99.90
76967;DHT22;65904;52.278;20.972;2023-02-15T05:34:58;3.70;99.90
76967;DHT22;65904;52.278;20.972;2023-02-15T05:37:44;3.60;99.90
76967;DHT22;65904;52.278;20.972;2023-02-15T05:40:30;3.60;99.90
76967;DHT22;65904;52.278;20.972;2023-02-15T05:43:18;3.60;99.90
76967;DHT22;65904;52.278;20.972;2023-02-15T05:46:05;3.60;99.90
76967;DHT22;65904;52.278;20.972;2023-02-15T05:48:52;3.70;99.90
76967;DHT22;65904;52.278;20.972;2023-02-15T05:51:38;3.60;99.90
76967;DHT22;65904;52.278;20.972;2023-02-15T05:54:24;3.60;99.90
76967;DHT22;65904;52.278;20.972;2023-02-15T05:57:10;3.60;99.90
76967;DHT22;65904;52.278;20.972;2023-02-15T05:59:58;3.60;99.90
76967;DHT22;65904;52.278;20.972;2023-02-15T06:02:44;3.50;99.90
76967;DHT22;65904;52.278;20.972;2023-02-15T06:05:30;3.50;99.90
76967;DHT22;65904;52.278;20.972;2023-02-15T06:08:16;3.50;99.90
76967;DHT22;65904;52.278;20.972;2023-02-15T06:11:02;3.50;99.90
76967;DHT22;65904;52.278;20.972;2023-02-15T06:13:49;3.50;99.90
76967;DHT22;65904;52.278;20.972;2023-02-15T06:16:37;3.50;99.90
76967;DHT22;65904;52.278;20.972;2023-02-15T06:19:23;3.50;99.90
76967;DHT22;65904;52.278;20.972;2023-02-15T06:22:09;3.40;99.90
76967;DHT22;65904;52.278;20.972;2023-02-15T06:24:55;3.40;99.90
76967;DHT22;65904;52.278;20.972;2023-02-15T06:27:41;3.50;99.90
76967;DHT22;65904;52.278;20.972;2023-02-15T06:30:27;3.50;99.90
76967;DHT22;65904;52.278;20.972;2023-02-15T06:33:15;3.50;99.90
76967;DHT22;65904;52.278;20.972;2023-02-15T06:36:02;3.50;99.90
76967;DHT22;65904;52.278;20.972;2023-02-15T06:38:49;3.40;99.90
76967;DHT22;65904;52.278;20.972;2023-02-15T06:41:35;3.40;99.90
76967;DHT22;65904;52.278;20.972;2023-02-15T06:44:21;3.40;99.90
76967;DHT22;65904;52.278;20.972;2023-02-15T06:47:07;3.40;99.90
76967;DHT22;65904;52.278;20.972;2023-02-15T06:49:54;3.40;99.90
76967;DHT22;65904;52.278;20.972;2023-02-15T06:52:41;3.40;99.90
76967;DHT22;65904;52.278;20.972;2023-02-15T06:55:27;3.30;99.90
76967;DHT22;65904;52.278;20.972;2023-02-15T06:58:13;3.40;99.90
76967;DHT22;65904;52.278;20.972;2023-02-15T07:00:59;3.40;99.90
76967;DHT22;65904;52.278;20.972;2023-02-15T07:03:46;3.30;99.90
76967;DHT22;65904;52.278;20.972;2023-02-15T07:06:33;3.40;99.90
76967;DHT22;65904;52.278;20.972;2023-02-15T07:09:19;3.40;99.90
76967;DHT22;65904;52.278;20.972;2023-02-15T07:12:06;3.40;99.90
76967;DHT22;65904;52.278;20.972;2023-02-15T07:15:10;3.40;99.90
76967;DHT22;65904;52.278;20.972;2023-02-15T07:17:57;3.40;99.90
76967;DHT22;65904;52.278;20.972;2023-02-15T07:20:44;3.40;99.90
76967;DHT22;65904;52.278;20.972;2023-02-15T07:23:31;3.40;99.90
76967;DHT22;65904;52.278;20.972;2023-02-15T07:26:17;3.30;99.90
76967;DHT22;65904;52.278;20.972;2023-02-15T07:29:04;3.40;99.90
76967;DHT22;65904;52.278;20.972;2023-02-15T07:31:50;3.50;99.90
76967;DHT22;65904;52.278;20.972;2023-02-15T07:34:36;3.50;99.90
76967;DHT22;65904;52.278;20.972;2023-02-15T07:37:23;3.50;99.90
76967;DHT22;65904;52.278;20.972;2023-02-15T07:40:11;3.50;99.90
76967;DHT22;65904;52.278;20.972;2023-02-15T07:42:58;3.50;99.90
76967;DHT22;65904;52.278;20.972;2023-02-15T07:45:44;3.50;99.90
76967;DHT22;65904;52.278;20.972;2023-02-15T07:48:30;3.50;99.90
76967;DHT22;65904;52.278;20.972;2023-02-15T07:51:16;3.40;99.90
76967;DHT22;65904;52.278;20.972;2023-02-15T07:54:02;3.40;99.90
76967;DHT22;65904;52.278;20.972;2023-02-15T07:56:50;3.40;99.90
76967;DHT22;65904;52.278;20.972;2023-02-15T07:59:36;3.40;99.90
76967;DHT22;65904;52.278;20.972;2023-02-15T08:02:23;3.40;99.90
76967;DHT22;65904;52.278;20.972;2023-02-15T08:05:09;3.40;99.90
76967;DHT22;65904;52.278;20.972;2023-02-15T08:07:55;3.40;99.90
76967;DHT22;65904;52.278;20.972;2023-02-15T08:10:41;3.30;99.90
76967;DHT22;65904;52.278;20.972;2023-02-15T08:13:48;3.40;99.90
76967;DHT22;65904;52.278;20.972;2023-02-15T08:16:43;3.40;99.90
76967;DHT22;65904;52.278;20.972;2023-02-15T08:19:30;3.40;99.90
76967;DHT22;65904;52.278;20.972;2023-02-15T08:22:17;3.40;99.90
76967;DHT22;65904;52.278;20.972;2023-02-15T08:25:03;3.40;99.90
76967;DHT22;65904;52.278;20.972;2023-02-15T08:27:50;3.40;99.90
76967;DHT22;65904;52.278;20.972;2023-02-15T08:30:38;3.40;99.90
76967;DHT22;65904;52.278;20.972;2023-02-15T08:33:24;3.40;99.90
76967;DHT22;65904;52.278;20.972;2023-02-15T08:36:12;3.40;99.90
76967;DHT22;65904;52.278;20.972;2023-02-15T08:38:59;3.40;99.90
76967;DHT22;65904;52.278;20.972;2023-02-15T08:41:47;3.40;99.90
76967;DHT22;65904;52.278;20.972;2023-02-15T08:44:33;3.40;99.90
76967;DHT22;65904;52.278;20.972;2023-02-15T08:47:21;3.40;99.90
76967;DHT22;65904;52.278;20.972;2023-02-15T08:50:07;3.40;99.90
76967;DHT22;65904;52.278;20.972;2023-02-15T08:52:54;3.40;99.90
76967;DHT22;65904;52.278;20.972;2023-02-15T08:55:41;3.40;99.90
76967;DHT22;65904;52.278;20.972;2023-02-15T08:58:28;3.40;99.90
76967;DHT22;65904;52.278;20.972;2023-02-15T09:01:17;3.40;99.90
76967;DHT22;65904;52.278;20.972;2023-02-15T09:04:07;3.40;99.90
76967;DHT22;65904;52.278;20.972;2023-02-15T09:06:54;3.40;99.90
76967;DHT22;65904;52.278;20.972;2023-02-15T09:09:40;3.40;99.90
76967;DHT22;65904;52.278;20.972;2023-02-15T09:12:26;3.50;99.90
76967;DHT22;65904;52.278;20.972;2023-02-15T09:15:13;3.50;99.90
76967;DHT22;65904;52.278;20.972;2023-02-15T09:17:58;3.40;99.90
76967;DHT22;65904;52.278;20.972;2023-02-15T09:20:49;3.50;99.90
76967;DHT22;65904;52.278;20.972;2023-02-15T09:23:35;3.40;99.90
76967;DHT22;65904;52.278;20.972;2023-02-15T09:26:22;3.30;99.90
76967;DHT22;65904;52.278;20.972;2023-02-15T09:29:09;3.30;99.90
76967;DHT22;65904;52.278;20.972;2023-02-15T09:31:56;3.20;99.90
76967;DHT22;65904;52.278;20.972;2023-02-15T09:34:42;3.20;99.90
76967;DHT22;65904;52.278;20.972;2023-02-15T09:37:30;3.20;99.90
76967;DHT22;65904;52.278;20.972;2023-02-15T09:40:17;3.30;99.90
76967;DHT22;65904;52.278;20.972;2023-02-15T09:43:24;3.30;99.90
76967;DHT22;65904;52.278;20.972;2023-02-15T09:46:33;3.30;99.90
76967;DHT22;65904;52.278;20.972;2023-02-15T09:49:30;3.40;99.90
76967;DHT22;65904;52.278;20.972;2023-02-15T09:55:43;3.30;99.90
76967;DHT22;65904;52.278;20.972;2023-02-15T09:58:35;3.30;99.90
76967;DHT22;65904;52.278;20.972;2023-02-15T10:01:31;3.20;99.90
76967;DHT22;65904;52.278;20.972;2023-02-15T10:07:47;3.20;99.90
76967;DHT22;65904;52.278;20.972;2023-02-15T10:10:42;3.20;99.90
76967;DHT22;65904;52.278;20.972;2023-02-15T10:13:40;3.40;99.90
76967;DHT22;65904;52.278;20.972;2023-02-15T10:16:36;3.50;99.90
76967;DHT22;65904;52.278;20.972;2023-02-15T10:19:33;3.60;99.90
76967;DHT22;65904;52.278;20.972;2023-02-15T10:22:29;3.50;99.90
76967;DHT22;65904;52.278;20.972;2023-02-15T10:25:29;3.40;99.90
76967;DHT22;65904;52.278;20.972;2023-02-15T10:28:20;3.30;99.90
76967;DHT22;65904;52.278;20.972;2023-02-15T10:31:15;3.30;99.90
76967;DHT22;65904;52.278;20.972;2023-02-15T10:34:15;3.30;99.90
76967;DHT22;65904;52.278;20.972;2023-02-15T10:40:27;3.40;99.90
76967;DHT22;65904;52.278;20.972;2023-02-15T10:43:30;3.40;99.90
76967;DHT22;65904;52.278;20.972;2023-02-15T10:46:31;3.40;99.90
76967;DHT22;65904;52.278;20.972;2023-02-15T10:49:38;3.40;99.90
76967;DHT22;65904;52.278;20.972;2023-02-15T10:52:34;3.40;99.90
76967;DHT22;65904;52.278;20.972;2023-02-15T10:55:34;3.50;99.90
76967;DHT22;65904;52.278;20.972;2023-02-15T10:58:36;3.40;99.90
76967;DHT22;65904;52.278;20.972;2023-02-15T11:01:28;3.40;99.90
76967;DHT22;65904;52.278;20.972;2023-02-15T11:04:48;3.50;99.90
76967;DHT22;65904;52.278;20.972;2023-02-15T11:07:39;3.40;99.90
76967;DHT22;65904;52.278;20.972;2023-02-15T11:10:31;3.40;99.90
76967;DHT22;65904;52.278;20.972;2023-02-15T11:13:23;3.40;99.90
76967;DHT22;65904;52.278;20.972;2023-02-15T11:16:17;3.30;99.90
76967;DHT22;65904;52.278;20.972;2023-02-15T11:19:08;3.40;99.90
76967;DHT22;65904;52.278;20.972;2023-02-15T11:21:59;3.40;99.90
76967;DHT22;65904;52.278;20.972;2023-02-15T11:24:47;3.40;99.90
76967;DHT22;65904;52.278;20.972;2023-02-15T11:27:33;3.40;99.90
76967;DHT22;65904;52.278;20.972;2023-02-15T11:30:22;3.50;99.90
76967;DHT22;65904;52.278;20.972;2023-02-15T11:33:16;3.40;99.90
76967;DHT22;65904;52.278;20.972;2023-02-15T11:36:07;3.40;99.90
76967;DHT22;65904;52.278;20.972;2023-02-15T11:38:59;3.40;99.90
76967;DHT22;65904;52.278;20.972;2023-02-15T11:41:50;3.40;99.90
76967;DHT22;65904;52.278;20.972;2023-02-15T11:44:42;3.40;99.90
76967;DHT22;65904;52.278;20.972;2023-02-15T11:47:32;3.40;99.90
76967;DHT22;65904;52.278;20.972;2023-02-15T11:50:22;3.40;99.90
76967;DHT22;65904;52.278;20.972;2023-02-15T11:53:12;3.40;99.90
76967;DHT22;65904;52.278;20.972;2023-02-15T11:56:00;3.40;99.90
76967;DHT22;65904;52.278;20.972;2023-02-15T11:58:52;3.40;99.90
76967;DHT22;65904;52.278;20.972;2023-02-15T12:01:42;3.40;99.90
76967;DHT22;65904;52.278;20.972;2023-02-15T12:04:32;3.40;99.90
76967;DHT22;65904;52.278;20.972;2023-02-15T12:07:24;3.50;99.90
76967;DHT22;65904;52.278;20.972;2023-02-15T12:10:17;3.50;99.90
76967;DHT22;65904;52.278;20.972;2023-02-15T12:13:10;3.60;99.90
76967;DHT22;65904;52.278;20.972;2023-02-15T12:15:58;3.60;99.90
76967;DHT22;65904;52.278;20.972;2023-02-15T12:18:45;3.60;99.90
76967;DHT22;65904;52.278;20.972;2023-02-15T12:21:34;3.60;99.90
76967;DHT22;65904;52.278;20.972;2023-02-15T12:24:29;3.50;99.90
76967;DHT22;65904;52.278;20.972;2023-02-15T12:27:18;3.50;99.90
76967;DHT22;65904;52.278;20.972;2023-02-15T12:30:10;3.50;99.90
76967;DHT22;65904;52.278;20.972;2023-02-15T12:33:08;3.50;99.90
76967;DHT22;65904;52.278;20.972;2023-02-15T12:36:03;3.50;99.90
76967;DHT22;65904;52.278;20.972;2023-02-15T12:39:14;3.60;99.90
76967;DHT22;65904;52.278;20.972;2023-02-15T12:42:13;3.60;99.90
76967;DHT22;65904;52.278;20.972;2023-02-15T12:45:02;3.50;99.90
76967;DHT22;65904;52.278;20.972;2023-02-15T12:48:08;3.60;99.90
76967;DHT22;65904;52.278;20.972;2023-02-15T12:51:07;3.70;99.90
76967;DHT22;65904;52.278;20.972;2023-02-15T12:53:53;3.60;99.90
76967;DHT22;65904;52.278;20.972;2023-02-15T12:56:39;3.70;99.90
76967;DHT22;65904;52.278;20.972;2023-02-15T12:59:27;3.70;99.90
76967;DHT22;65904;52.278;20.972;2023-02-15T13:02:20;3.70;99.90
76967;DHT22;65904;52.278;20.972;2023-02-15T13:05:14;3.70;99.90
76967;DHT22;65904;52.278;20.972;2023-02-15T13:08:09;3.70;99.90
76967;DHT22;65904;52.278;20.972;2023-02-15T13:11:00;3.80;99.90
76967;DHT22;65904;52.278;20.972;2023-02-15T13:13:51;3.80;99.90
76967;DHT22;65904;52.278;20.972;2023-02-15T13:16:39;3.90;99.90
76967;DHT22;65904;52.278;20.972;2023-02-15T13:19:31;3.80;99.90
76967;DHT22;65904;52.278;20.972;2023-02-15T13:22:21;3.70;99.90
76967;DHT22;65904;52.278;20.972;2023-02-15T13:25:13;3.60;99.90
76967;DHT22;65904;52.278;20.972;2023-02-15T13:28:02;3.60;99.90
76967;DHT22;65904;52.278;20.972;2023-02-15T13:30:49;3.60;99.90
76967;DHT22;65904;52.278;20.972;2023-02-15T13:33:38;3.60;99.90
76967;DHT22;65904;52.278;20.972;2023-02-15T13:36:30;3.70;99.90
76967;DHT22;65904;52.278;20.972;2023-02-15T13:39:24;3.70;99.90
76967;DHT22;65904;52.278;20.972;2023-02-15T13:42:18;3.70;99.90
76967;DHT22;65904;52.278;20.972;2023-02-15T13:45:24;3.70;99.90
76967;DHT22;65904;52.278;20.972;2023-02-15T13:48:23;3.70;99.90
76967;DHT22;65904;52.278;20.972;2023-02-15T13:51:21;3.70;99.90
76967;DHT22;65904;52.278;20.972;2023-02-15T13:54:42;3.80;99.90
76967;DHT22;65904;52.278;20.972;2023-02-15T14:01:08;3.80;99.90
76967;DHT22;65904;52.278;20.972;2023-02-15T14:04:22;3.70;99.90
76967;DHT22;65904;52.278;20.972;2023-02-15T14:07:27;3.70;99.90
76967;DHT22;65904;52.278;20.972;2023-02-15T14:10:37;3.80;99.90
76967;DHT22;65904;52.278;20.972;2023-02-15T14:13:46;3.90;99.90
76967;DHT22;65904;52.278;20.972;2023-02-15T14:16:41;3.70;99.90
76967;DHT22;65904;52.278;20.972;2023-02-15T14:19:35;3.80;99.90
76967;DHT22;65904;52.278;20.972;2023-02-15T14:22:31;3.70;99.90
76967;DHT22;65904;52.278;20.972;2023-02-15T14:25:25;3.60;99.90
76967;DHT22;65904;52.278;20.972;2023-02-15T14:28:16;3.60;99.90
76967;DHT22;65904;52.278;20.972;2023-02-15T14:31:05;3.50;99.90
76967;DHT22;65904;52.278;20.972;2023-02-15T14:33:54;3.50;99.90
76967;DHT22;65904;52.278;20.972;2023-02-15T14:36:41;3.40;99.90
76967;DHT22;65904;52.278;20.972;2023-02-15T14:39:36;3.50;99.90
76967;DHT22;65904;52.278;20.972;2023-02-15T14:42:47;3.50;99.90
76967;DHT22;65904;52.278;20.972;2023-02-15T14:45:41;3.60;99.90
76967;DHT22;65904;52.278;20.972;2023-02-15T14:48:31;3.60;99.90
76967;DHT22;65904;52.278;20.972;2023-02-15T14:54:59;3.50;99.90
76967;DHT22;65904;52.278;20.972;2023-02-15T14:57:56;3.50;99.90
76967;DHT22;65904;52.278;20.972;2023-02-15T15:00:43;3.40;99.90
76967;DHT22;65904;52.278;20.972;2023-02-15T15:03:29;3.40;99.90
76967;DHT22;65904;52.278;20.972;2023-02-15T15:06:24;3.40;99.90
76967;DHT22;65904;52.278;20.972;2023-02-15T15:09:13;3.30;99.90
76967;DHT22;65904;52.278;20.972;2023-02-15T15:12:40;3.30;99.90
76967;DHT22;65904;52.278;20.972;2023-02-15T15:15:45;3.20;99.90
76967;DHT22;65904;52.278;20.972;2023-02-15T15:18:46;3.30;99.90
76967;DHT22;65904;52.278;20.972;2023-02-15T15:21:55;3.40;99.90
76967;DHT22;65904;52.278;20.972;2023-02-15T15:24:53;3.50;99.90
76967;DHT22;65904;52.278;20.972;2023-02-15T15:27:49;3.50;99.90
76967;DHT22;65904;52.278;20.972;2023-02-15T15:30:48;3.40;99.90
76967;DHT22;65904;52.278;20.972;2023-02-15T15:44:11;3.40;99.90
76967;DHT22;65904;52.278;20.972;2023-02-15T15:47:16;3.30;99.90
76967;DHT22;65904;52.278;20.972;2023-02-15T15:50:12;3.20;99.90
76967;DHT22;65904;52.278;20.972;2023-02-15T15:53:00;3.20;99.90
76967;DHT22;65904;52.278;20.972;2023-02-15T15:55:50;3.20;99.90
76967;DHT22;65904;52.278;20.972;2023-02-15T15:58:42;3.30;99.90
76967;DHT22;65904;52.278;20.972;2023-02-15T16:01:35;3.20;99.90
76967;DHT22;65904;52.278;20.972;2023-02-15T16:04:26;3.20;99.90
76967;DHT22;65904;52.278;20.972;2023-02-15T16:07:24;3.30;99.90
76967;DHT22;65904;52.278;20.972;2023-02-15T16:10:22;3.30;99.90
76967;DHT22;65904;52.278;20.972;2023-02-15T16:13:13;3.30;99.90
76967;DHT22;65904;52.278;20.972;2023-02-15T16:15:59;3.20;99.90
76967;DHT22;65904;52.278;20.972;2023-02-15T16:18:48;3.20;99.90
76967;DHT22;65904;52.278;20.972;2023-02-15T16:21:35;3.20;99.90
76967;DHT22;65904;52.278;20.972;2023-02-15T16:24:37;3.10;99.90
76967;DHT22;65904;52.278;20.972;2023-02-15T16:27:35;3.10;99.90
76967;DHT22;65904;52.278;20.972;2023-02-15T16:30:31;3.10;99.90
76967;DHT22;65904;52.278;20.972;2023-02-15T16:33:17;3.10;99.90
76967;DHT22;65904;52.278;20.972;2023-02-15T16:36:10;3.10;99.90
76967;DHT22;65904;52.278;20.972;2023-02-15T16:39:08;3.00;99.90
76967;DHT22;65904;52.278;20.972;2023-02-15T16:41:55;3.00;99.90
76967;DHT22;65904;52.278;20.972;2023-02-15T16:44:41;3.00;99.90
76967;DHT22;65904;52.278;20.972;2023-02-15T16:47:31;3.00;99.90
76967;DHT22;65904;52.278;20.972;2023-02-15T16:50:22;3.00;99.90
76967;DHT22;65904;52.278;20.972;2023-02-15T16:53:17;3.00;99.90
76967;DHT22;65904;52.278;20.972;2023-02-15T16:56:05;2.90;99.90
76967;DHT22;65904;52.278;20.972;2023-02-15T16:58:53;2.90;99.90
76967;DHT22;65904;52.278;20.972;2023-02-15T17:01:44;2.90;99.90
76967;DHT22;65904;52.278;20.972;2023-02-15T17:04:31;2.80;99.90
76967;DHT22;65904;52.278;20.972;2023-02-15T17:07:20;2.80;99.90
76967;DHT22;65904;52.278;20.972;2023-02-15T17:10:30;2.80;99.90
76967;DHT22;65904;52.278;20.972;2023-02-15T17:13:17;2.80;99.90
76967;DHT22;65904;52.278;20.972;2023-02-15T17:16:25;2.80;99.90
76967;DHT22;65904;52.278;20.972;2023-02-15T17:19:15;2.80;99.90
76967;DHT22;65904;52.278;20.972;2023-02-15T17:22:04;2.80;99.90
76967;DHT22;65904;52.278;20.972;2023-02-15T17:25:00;2.80;99.90
76967;DHT22;65904;52.278;20.972;2023-02-15T17:27:53;2.90;99.90
76967;DHT22;65904;52.278;20.972;2023-02-15T17:30:40;2.80;99.90
76967;DHT22;65904;52.278;20.972;2023-02-15T17:33:37;2.80;99.90
76967;DHT22;65904;52.278;20.972;2023-02-15T17:36:25;2.80;99.90
76967;DHT22;65904;52.278;20.972;2023-02-15T17:39:20;2.90;99.90
76967;DHT22;65904;52.278;20.972;2023-02-15T17:42:07;2.80;99.90
76967;DHT22;65904;52.278;20.972;2023-02-15T17:44:55;2.80;99.90
76967;DHT22;65904;52.278;20.972;2023-02-15T17:47:41;2.90;99.90
76967;DHT22;65904;52.278;20.972;2023-02-15T17:50:28;2.90;99.90
76967;DHT22;65904;52.278;20.972;2023-02-15T17:53:16;2.90;99.90
76967;DHT22;65904;52.278;20.972;2023-02-15T17:56:04;2.90;99.90
76967;DHT22;65904;52.278;20.972;2023-02-15T17:58:53;2.90;99.90
76967;DHT22;65904;52.278;20.972;2023-02-15T18:01:45;2.90;99.90
76967;DHT22;65904;52.278;20.972;2023-02-15T18:04:49;2.90;99.90
76967;DHT22;65904;52.278;20.972;2023-02-15T18:07:53;2.90;99.90
76967;DHT22;65904;52.278;20.972;2023-02-15T18:10:57;2.80;99.90
76967;DHT22;65904;52.278;20.972;2023-02-15T18:14:01;2.80;99.90
76967;DHT22;65904;52.278;20.972;2023-02-15T18:16:49;2.80;99.90
76967;DHT22;65904;52.278;20.972;2023-02-15T18:19:35;2.70;99.90
76967;DHT22;65904;52.278;20.972;2023-02-15T18:22:22;2.70;99.90
76967;DHT22;65904;52.278;20.972;2023-02-15T18:25:11;2.70;99.90
76967;DHT22;65904;52.278;20.972;2023-02-15T18:27:58;2.70;99.90
76967;DHT22;65904;52.278;20.972;2023-02-15T18:30:44;2.70;99.90
76967;DHT22;65904;52.278;20.972;2023-02-15T18:33:35;2.70;99.90
76967;DHT22;65904;52.278;20.972;2023-02-15T18:36:25;2.70;99.90